Terminal Aerodrome Forecast
Issued by NWS

Home | Current Version | Previous Version | Text Only | Print | Product List | Glossary On
Versions: 1 2 3 4 5 6 7 8 9 10 11 12 13 14 15 16
000
FTUS45 KGJT 210520
TAFVEL
TAF
KVEL 210520Z 2106/2206 31005KT P6SM SCT150 SCT250
     FM210800 34005KT P6SM SKC
     FM211300 VRB04KT P6SM SKC
     FM211800 23008KT P6SM SCT090 SCT250
     FM220200 30004KT P6SM SCT250=

USA.gov is the U.S. government's official web portal to all federal, state and local government web resources and services.